createdAt,value
2018-07-16T00:04:59.326Z,100761.00
2018-07-16T00:10:03.110Z,100764.00
2018-07-16T00:15:06.893Z,100763.00
2018-07-16T00:20:10.692Z,100761.00
2018-07-16T00:25:14.732Z,100760.00
2018-07-16T00:30:18.516Z,100754.00
2018-07-16T00:35:22.297Z,100756.00
2018-07-16T00:40:26.096Z,100751.00
2018-07-16T00:45:29.914Z,100743.00
2018-07-16T00:50:33.966Z,100746.00
2018-07-16T00:55:37.786Z,100747.00
2018-07-16T01:00:42.596Z,100739.00
2018-07-16T01:05:46.389Z,100740.00
2018-07-16T01:10:50.437Z,100739.00
2018-07-16T01:15:54.493Z,100737.00
2018-07-16T01:20:58.305Z,100731.00
2018-07-16T01:26:02.304Z,100741.00
2018-07-16T01:31:06.344Z,100741.00
2018-07-16T01:36:10.144Z,100730.00
2018-07-16T01:41:14.210Z,100726.00
2018-07-16T01:46:18.008Z,100730.00
2018-07-16T01:51:21.849Z,100734.00
2018-07-16T01:56:25.727Z,100734.00
2018-07-16T02:01:29.573Z,100735.00
2018-07-16T02:06:33.377Z,100734.00
2018-07-16T02:11:37.448Z,100734.00
2018-07-16T02:16:41.504Z,100734.00
2018-07-16T02:21:45.339Z,100736.00
2018-07-16T02:26:49.396Z,100736.00
2018-07-16T02:31:53.470Z,100744.00
2018-07-16T02:36:57.272Z,100737.00
2018-07-16T02:42:01.349Z,100731.00
2018-07-16T02:47:05.158Z,100736.00
2018-07-16T02:52:08.949Z,100738.00
2018-07-16T02:57:12.763Z,100736.00
2018-07-16T03:02:16.571Z,100731.00
2018-07-16T03:07:20.367Z,100739.00
2018-07-16T03:12:24.152Z,100739.00
2018-07-16T03:17:28.313Z,100737.00
2018-07-16T03:22:32.132Z,100733.00
2018-07-16T03:27:35.958Z,100735.00
2018-07-16T03:32:39.762Z,100742.00
2018-07-16T03:37:43.637Z,100737.00
2018-07-16T03:42:47.450Z,100735.00
2018-07-16T03:47:51.294Z,100735.00
2018-07-16T03:52:55.122Z,100736.00
2018-07-16T03:57:58.974Z,100732.00
2018-07-16T04:03:02.817Z,100727.00
2018-07-16T04:08:06.717Z,100734.00
2018-07-16T04:13:10.763Z,100733.00
2018-07-16T04:18:17.478Z,100731.00
2018-07-16T04:23:21.283Z,100736.00
2018-07-16T04:28:25.108Z,100732.00
2018-07-16T04:33:28.945Z,100734.00
2018-07-16T04:38:32.761Z,100734.00
2018-07-16T04:43:36.565Z,100725.00
2018-07-16T04:48:40.367Z,100723.00
2018-07-16T04:53:44.258Z,100727.00
2018-07-16T04:58:48.233Z,100723.00
2018-07-16T05:03:52.308Z,100731.00
2018-07-16T05:08:56.374Z,100726.00
2018-07-16T05:14:00.182Z,100725.00
2018-07-16T05:19:03.987Z,100725.00
2018-07-16T05:24:07.889Z,100729.00
2018-07-16T05:29:11.633Z,100724.00
2018-07-16T05:34:15.418Z,100717.00
2018-07-16T05:39:19.473Z,100722.00
2018-07-16T05:44:23.295Z,100718.00
2018-07-16T05:49:27.378Z,100722.00
2018-07-16T05:54:31.205Z,100722.00
2018-07-16T05:59:35.286Z,100719.00
2018-07-16T06:04:39.094Z,100727.00
2018-07-16T06:09:43.008Z,100723.00
2018-07-16T06:14:47.180Z,100721.00
2018-07-16T06:19:51.252Z,100727.00
2018-07-16T06:24:55.058Z,100729.00
2018-07-16T06:29:59.392Z,100720.00
2018-07-16T06:35:03.440Z,100712.00
2018-07-16T06:40:08.117Z,100712.00
2018-07-16T06:45:11.954Z,100706.00
2018-07-16T06:50:15.787Z,100710.00
2018-07-16T06:55:19.628Z,100712.00
2018-07-16T07:00:23.430Z,100712.00
2018-07-16T07:05:27.286Z,100719.00
2018-07-16T07:10:31.101Z,100708.00
2018-07-16T07:15:34.925Z,100700.00
2018-07-16T07:20:38.793Z,100698.00
2018-07-16T07:25:42.668Z,100712.00
2018-07-16T07:30:46.488Z,100706.00
2018-07-16T07:35:50.527Z,100694.00
2018-07-16T07:40:54.317Z,100695.00
2018-07-16T07:45:58.141Z,100695.00
2018-07-16T07:51:02.244Z,100689.00
2018-07-16T07:56:06.049Z,100683.00
2018-07-16T08:01:09.833Z,100690.00
2018-07-16T08:06:13.630Z,100688.00
2018-07-16T08:11:17.704Z,100695.00
2018-07-16T08:16:21.515Z,100685.00
2018-07-16T08:21:25.539Z,100684.00
2018-07-16T08:26:29.605Z,100682.00
2018-07-16T08:31:33.607Z,100685.00
2018-07-16T08:36:37.390Z,100680.00
2018-07-16T08:41:41.198Z,100687.00
2018-07-16T08:46:44.986Z,100682.00
2018-07-16T08:51:49.013Z,100686.00
2018-07-16T08:56:52.814Z,100686.00
2018-07-16T09:01:56.871Z,100690.00
2018-07-16T09:07:00.670Z,100690.00
2018-07-16T09:12:04.577Z,100687.00
2018-07-16T09:17:08.681Z,100688.00
2018-07-16T09:22:12.582Z,100688.00
2018-07-16T09:27:17.074Z,100681.00
2018-07-16T09:32:20.931Z,100685.00
2018-07-16T09:37:24.994Z,100680.00
2018-07-16T09:42:29.049Z,100679.00
2018-07-16T09:47:32.837Z,100674.00
2018-07-16T09:52:36.870Z,100673.00
2018-07-16T09:57:40.918Z,100664.00
2018-07-16T10:02:44.991Z,100653.00
2018-07-16T10:07:48.814Z,100638.00
2018-07-16T10:12:52.910Z,100633.00
2018-07-16T10:17:56.724Z,100630.00
2018-07-16T10:23:00.509Z,100628.00
2018-07-16T10:28:04.340Z,100627.00
2018-07-16T10:33:08.163Z,100629.00
2018-07-16T10:38:12.234Z,100619.00
2018-07-16T10:43:16.006Z,100616.00
2018-07-16T10:48:20.074Z,100610.00
2018-07-16T10:53:23.874Z,100607.00
2018-07-16T10:58:27.709Z,100606.00
2018-07-16T11:03:31.517Z,100604.00
2018-07-16T11:08:35.321Z,100593.00
2018-07-16T11:13:39.321Z,100597.00
2018-07-16T11:18:43.229Z,100596.00
2018-07-16T11:28:58.354Z,100586.00
2018-07-16T11:34:02.174Z,100588.00
2018-07-16T11:39:08.198Z,100580.00
2018-07-16T11:44:12.009Z,100576.00
2018-07-16T11:49:15.837Z,100573.00
2018-07-16T11:54:19.640Z,100569.00
2018-07-16T11:59:23.784Z,100560.00
2018-07-16T12:04:27.478Z,100548.00
2018-07-16T12:09:31.255Z,100543.00
2018-07-16T12:14:35.032Z,100533.00
2018-07-16T12:19:38.812Z,100543.00
2018-07-16T12:24:42.703Z,100528.00
2018-07-16T12:29:46.502Z,100518.00
2018-07-16T12:34:50.370Z,100519.00
2018-07-16T12:39:54.204Z,100517.00
2018-07-16T12:44:57.993Z,100509.00
2018-07-16T12:50:01.826Z,100503.00
2018-07-16T12:55:05.677Z,100493.00
2018-07-16T13:00:09.465Z,100486.00
2018-07-16T13:05:13.254Z,100481.00
2018-07-16T13:10:17.036Z,100475.00
2018-07-16T13:15:20.813Z,100463.00
2018-07-16T13:20:26.920Z,100465.00
2018-07-16T13:25:30.713Z,100461.00
2018-07-16T13:30:34.507Z,100456.00
2018-07-16T13:35:38.515Z,100450.00
2018-07-16T13:40:42.560Z,100449.00
2018-07-16T13:45:46.339Z,100433.00
2018-07-16T13:50:50.159Z,100443.00
2018-07-16T13:55:54.170Z,100444.00
2018-07-16T14:00:57.997Z,100446.00
2018-07-16T14:06:02.026Z,100428.00
2018-07-16T14:11:06.335Z,100427.00
2018-07-16T14:16:10.589Z,100428.00
2018-07-16T14:21:14.506Z,100423.00
2018-07-16T14:26:24.955Z,100417.00
2018-07-16T14:31:28.949Z,100409.00
2018-07-16T14:36:32.842Z,100415.00
2018-07-16T14:41:36.614Z,100414.00
2018-07-16T14:46:40.392Z,100412.00
2018-07-16T14:51:44.190Z,100407.00
2018-07-16T14:56:48.233Z,100401.00
2018-07-16T15:01:52.249Z,100397.00
2018-07-16T15:06:56.270Z,100390.00
2018-07-16T15:12:00.056Z,100395.00
2018-07-16T15:17:04.274Z,100391.00
2018-07-16T15:22:08.310Z,100391.00
2018-07-16T15:27:12.102Z,100391.00
2018-07-16T15:32:16.165Z,100397.00
2018-07-16T15:37:19.969Z,100399.00
2018-07-16T15:42:24.028Z,100400.00
2018-07-16T15:47:27.917Z,100395.00
2018-07-16T15:52:31.705Z,100387.00
2018-07-16T15:57:35.520Z,100383.00
2018-07-16T16:02:39.382Z,100383.00
2018-07-16T16:07:43.096Z,100387.00
2018-07-16T16:12:46.917Z,100379.00
2018-07-16T16:17:50.729Z,100377.00
2018-07-16T16:22:54.528Z,100372.00
2018-07-16T16:27:58.321Z,100374.00
2018-07-16T16:33:02.187Z,100373.00
2018-07-16T16:38:05.958Z,100373.00
2018-07-16T16:43:09.845Z,100374.00
2018-07-16T16:48:13.573Z,100377.00
2018-07-16T16:53:17.353Z,100380.00
2018-07-16T16:58:21.202Z,100381.00
2018-07-16T17:03:24.921Z,100387.00
2018-07-16T17:08:28.716Z,100376.00
2018-07-16T17:13:32.549Z,100373.00
2018-07-16T17:18:36.570Z,100377.00
2018-07-16T17:23:40.913Z,100376.00
2018-07-16T17:28:44.885Z,100383.00
2018-07-16T17:33:49.359Z,100382.00
2018-07-16T17:38:53.157Z,100383.00
2018-07-16T17:43:56.943Z,100387.00
2018-07-16T17:49:00.726Z,100392.00
2018-07-16T17:54:05.325Z,100394.00
2018-07-16T17:59:09.138Z,100393.00
2018-07-16T18:04:12.918Z,100397.00
2018-07-16T18:09:17.406Z,100397.00
2018-07-16T18:14:21.227Z,100402.00
2018-07-16T18:19:25.237Z,100406.00
2018-07-16T18:24:29.369Z,100407.00
2018-07-16T18:29:33.171Z,100416.00
2018-07-16T18:34:37.356Z,100423.00
2018-07-16T18:39:41.137Z,100422.00
2018-07-16T18:44:44.940Z,100427.00
2018-07-16T18:49:49.069Z,100431.00
2018-07-16T18:54:53.451Z,100434.00
2018-07-16T18:59:57.488Z,100432.00
2018-07-16T19:05:01.265Z,100438.00
2018-07-16T19:10:05.440Z,100444.00
2018-07-16T19:15:13.967Z,100447.00
2018-07-16T19:20:17.773Z,100445.00
2018-07-16T19:25:21.559Z,100452.00
2018-07-16T19:30:25.356Z,100462.00
2018-07-16T19:35:29.385Z,100460.00
2018-07-16T19:40:33.159Z,100467.00
2018-07-16T19:45:36.934Z,100470.00
2018-07-16T19:50:41.192Z,100485.00
2018-07-16T19:55:44.973Z,100493.00
2018-07-16T20:00:49.020Z,100499.00
2018-07-16T20:05:53.146Z,100503.00
2018-07-16T20:10:57.163Z,100508.00
2018-07-16T20:16:00.938Z,100506.00
2018-07-16T20:21:05.875Z,100520.00
2018-07-16T20:26:09.900Z,100528.00
2018-07-16T20:31:13.918Z,100536.00
2018-07-16T20:36:17.942Z,100540.00
2018-07-16T20:41:21.723Z,100541.00
2018-07-16T20:46:25.499Z,100541.00
2018-07-16T20:51:29.514Z,100547.00
2018-07-16T20:56:33.555Z,100548.00
2018-07-16T21:01:37.337Z,100546.00
2018-07-16T21:06:41.380Z,100549.00
2018-07-16T21:11:45.181Z,100557.00
2018-07-16T21:16:49.209Z,100563.00
2018-07-16T21:21:53.270Z,100562.00
2018-07-16T21:26:57.314Z,100570.00
2018-07-16T21:32:02.003Z,100576.00
2018-07-16T21:37:05.793Z,100578.00
2018-07-16T21:42:09.823Z,100584.00
2018-07-16T21:47:13.596Z,100579.00
2018-07-16T21:52:17.616Z,100580.00
2018-07-16T21:57:21.420Z,100580.00
2018-07-16T22:02:25.526Z,100579.00
2018-07-16T22:07:29.314Z,100584.00
2018-07-16T22:12:33.118Z,100584.00
2018-07-16T22:17:36.934Z,100589.00
2018-07-16T22:22:40.722Z,100600.00
2018-07-16T22:27:44.733Z,100596.00
2018-07-16T22:32:48.779Z,100590.00
2018-07-16T22:37:52.584Z,100591.00
2018-07-16T22:42:56.613Z,100596.00
2018-07-16T22:48:00.650Z,100596.00
2018-07-16T22:53:04.437Z,100602.00
2018-07-16T22:58:08.224Z,100603.00
2018-07-16T23:03:12.085Z,100604.00
2018-07-16T23:08:17.074Z,100604.00
2018-07-16T23:13:20.865Z,100608.00
2018-07-16T23:18:24.629Z,100614.00
2018-07-16T23:23:28.413Z,100615.00
2018-07-16T23:28:32.203Z,100621.00
2018-07-16T23:33:35.969Z,100625.00
2018-07-16T23:38:39.761Z,100620.00
2018-07-16T23:43:43.624Z,100616.00
2018-07-16T23:48:48.353Z,100631.00
2018-07-16T23:53:52.145Z,100636.00
2018-07-16T23:58:55.938Z,100646.00
